createdAt,value
2018-05-23T00:00:14.812Z,100639.00
2018-05-23T00:02:42.332Z,100643.10
2018-05-23T00:05:09.850Z,100652.97
2018-05-23T00:07:37.370Z,100654.64
2018-05-23T00:10:04.896Z,100654.88
2018-05-23T00:12:32.382Z,100666.18
2018-05-23T00:14:59.916Z,100667.75
2018-05-23T00:17:27.441Z,100664.16
2018-05-23T00:19:54.953Z,100674.63
2018-05-23T00:22:22.479Z,100674.63
2018-05-23T00:24:49.968Z,100669.05
2018-05-23T00:27:17.570Z,100674.80
2018-05-23T00:29:45.084Z,100675.50
2018-05-23T00:32:12.625Z,100676.14
2018-05-23T00:34:40.167Z,100677.33
2018-05-23T00:37:07.661Z,100678.66
2018-05-23T00:39:35.182Z,100676.08
2018-05-23T00:42:02.885Z,100677.09
2018-05-23T00:44:30.406Z,100671.97
2018-05-23T00:46:58.686Z,100674.31
2018-05-23T00:49:26.234Z,100678.42
2018-05-23T00:51:53.776Z,100679.09
2018-05-23T00:54:22.142Z,100678.84
2018-05-23T00:56:49.734Z,100679.77
2018-05-23T00:59:17.268Z,100685.56
2018-05-23T01:01:44.823Z,100688.16
2018-05-23T01:04:12.339Z,100689.81
2018-05-23T01:06:39.864Z,100689.82
2018-05-23T01:09:07.404Z,100688.86
2018-05-23T01:11:34.967Z,100686.73
2018-05-23T01:14:02.527Z,100693.81
2018-05-23T01:16:30.027Z,100696.73
2018-05-23T01:18:57.536Z,100697.84
2018-05-23T01:21:25.058Z,100702.84
2018-05-23T01:23:52.573Z,100706.05
2018-05-23T01:26:20.135Z,100707.47
2018-05-23T01:28:47.734Z,100711.34
2018-05-23T01:31:15.223Z,100713.05
2018-05-23T01:33:42.724Z,100711.96
2018-05-23T01:36:10.239Z,100710.33
2018-05-23T01:38:37.742Z,100707.95
2018-05-23T01:41:05.336Z,100705.78
2018-05-23T01:43:32.851Z,100709.44
2018-05-23T01:46:00.407Z,100713.05
2018-05-23T01:48:33.656Z,100711.11
2018-05-23T01:51:01.171Z,100718.48
2018-05-23T01:53:28.759Z,100713.88
2018-05-23T01:55:56.269Z,100705.51
2018-05-23T01:58:23.807Z,100705.25
2018-05-23T02:00:51.349Z,100711.23
2018-05-23T02:03:18.899Z,100707.56
2018-05-23T02:05:46.421Z,100712.41
2018-05-23T02:08:13.940Z,100709.38
2018-05-23T02:10:41.471Z,100712.91
2018-05-23T02:13:08.948Z,100710.40
2018-05-23T02:15:36.495Z,100707.17
2018-05-23T02:18:04.039Z,100718.57
2018-05-23T02:20:31.562Z,100709.70
2018-05-23T02:22:59.194Z,100715.65
2018-05-23T02:25:26.755Z,100714.05
2018-05-23T02:27:54.269Z,100719.34
2018-05-23T02:30:21.752Z,100718.55
2018-05-23T02:32:49.244Z,100721.61
2018-05-23T02:35:16.744Z,100732.65
2018-05-23T02:37:44.308Z,100726.77
2018-05-23T02:40:11.796Z,100734.98
2018-05-23T02:42:39.327Z,100732.06
2018-05-23T02:45:06.855Z,100736.69
2018-05-23T02:47:34.391Z,100736.27
2018-05-23T02:50:01.931Z,100743.59
2018-05-23T02:52:29.482Z,100741.42
2018-05-23T02:54:56.969Z,100739.65
2018-05-23T02:57:24.496Z,100744.55
2018-05-23T02:59:52.040Z,100748.14
2018-05-23T03:02:19.895Z,100754.55
2018-05-23T03:04:47.421Z,100758.69
2018-05-23T03:07:14.951Z,100758.00
2018-05-23T03:09:42.483Z,100765.96
2018-05-23T03:12:09.985Z,100773.10
2018-05-23T03:14:37.514Z,100777.94
2018-05-23T03:17:05.059Z,100780.09
2018-05-23T03:19:32.549Z,100782.91
2018-05-23T03:22:00.186Z,100786.03
2018-05-23T03:24:27.671Z,100783.88
2018-05-23T03:26:55.183Z,100785.67
2018-05-23T03:29:22.663Z,100784.06
2018-05-23T03:31:50.205Z,100784.77
2018-05-23T03:34:17.726Z,100790.28
2018-05-23T03:36:45.227Z,100793.75
2018-05-23T03:39:12.723Z,100796.87
2018-05-23T03:41:40.213Z,100798.16
2018-05-23T03:44:07.723Z,100799.16
2018-05-23T03:46:35.312Z,100802.05
2018-05-23T03:49:02.814Z,100806.27
2018-05-23T03:51:30.373Z,100806.41
2018-05-23T03:53:57.867Z,100811.30
2018-05-23T03:56:25.572Z,100823.11
2018-05-23T03:58:53.109Z,100820.31
2018-05-23T04:01:32.375Z,100815.16
2018-05-23T04:04:11.712Z,100821.02
2018-05-23T04:06:50.902Z,100821.44
2018-05-23T04:09:18.392Z,100822.25
2018-05-23T04:11:45.883Z,100823.02
2018-05-23T04:14:13.400Z,100830.39
2018-05-23T04:16:40.928Z,100833.35
2018-05-23T04:19:08.419Z,100819.83
2018-05-23T04:21:35.911Z,100829.87
2018-05-23T04:24:03.454Z,100828.62
2018-05-23T04:26:30.969Z,100831.09
2018-05-23T04:28:58.508Z,100837.59
2018-05-23T04:31:26.001Z,100843.91
2018-05-23T04:33:53.484Z,100846.21
2018-05-23T04:36:21.039Z,100844.86
2018-05-23T04:38:48.537Z,100853.64
2018-05-23T04:41:16.040Z,100849.22
2018-05-23T04:43:43.513Z,100851.03
2018-05-23T04:46:11.001Z,100857.09
2018-05-23T04:48:38.562Z,100856.47
2018-05-23T04:51:06.034Z,100862.18
2018-05-23T04:53:33.565Z,100862.42
2018-05-23T04:56:01.105Z,100859.25
2018-05-23T04:58:28.604Z,100869.05
2018-05-23T05:00:56.172Z,100871.37
2018-05-23T05:03:23.680Z,100871.61
2018-05-23T05:05:51.223Z,100877.61
2018-05-23T05:08:18.728Z,100879.66
2018-05-23T05:10:46.267Z,100879.46
2018-05-23T05:13:13.801Z,100880.13
2018-05-23T05:15:41.376Z,100878.86
2018-05-23T05:18:08.924Z,100890.81
2018-05-23T05:20:36.487Z,100892.27
2018-05-23T05:23:04.025Z,100898.19
2018-05-23T05:25:31.610Z,100906.24
2018-05-23T05:27:59.152Z,100904.20
2018-05-23T05:30:26.723Z,100905.61
2018-05-23T05:32:54.284Z,100917.98
2018-05-23T05:35:21.909Z,100916.43
2018-05-23T05:37:49.478Z,100916.35
2018-05-23T05:40:17.147Z,100911.84
2018-05-23T05:42:44.713Z,100919.20
2018-05-23T05:45:12.269Z,100925.67
2018-05-23T05:47:39.889Z,100930.18
2018-05-23T05:50:07.392Z,100930.12
2018-05-23T05:52:34.941Z,100934.31
2018-05-23T05:55:02.449Z,100942.68
2018-05-23T05:57:29.977Z,100935.63
2018-05-23T05:59:57.475Z,100941.80
2018-05-23T06:02:25.043Z,100947.95
2018-05-23T06:04:52.531Z,100944.14
2018-05-23T06:07:20.104Z,100958.16
2018-05-23T06:09:47.594Z,100956.38
2018-05-23T06:12:15.216Z,100959.38
2018-05-23T06:14:42.823Z,100957.30
2018-05-23T06:17:10.441Z,100961.80
2018-05-23T06:19:37.964Z,100960.77
2018-05-23T06:22:05.483Z,100960.71
2018-05-23T06:24:33.000Z,100967.72
2018-05-23T06:27:00.514Z,100973.36
2018-05-23T06:29:28.164Z,100973.92
2018-05-23T06:31:55.681Z,100979.52
2018-05-23T06:34:23.361Z,100970.41
2018-05-23T06:36:50.891Z,100973.39
2018-05-23T06:39:18.388Z,100977.54
2018-05-23T06:41:45.910Z,100975.23
2018-05-23T06:44:13.479Z,100973.10
2018-05-23T06:46:41.013Z,100978.88
2018-05-23T06:49:08.502Z,100976.91
2018-05-23T06:51:36.050Z,100979.28
2018-05-23T06:54:03.547Z,100978.00
2018-05-23T06:56:31.042Z,100981.92
2018-05-23T06:58:58.622Z,100978.11
2018-05-23T07:01:26.191Z,100979.42
2018-05-23T07:03:53.717Z,100987.61
2018-05-23T07:06:21.220Z,100982.78
2018-05-23T07:08:48.709Z,100983.47
2018-05-23T07:11:16.181Z,100990.33
2018-05-23T07:13:43.674Z,100988.83
2018-05-23T07:16:11.170Z,100992.02
2018-05-23T07:18:38.662Z,100986.50
2018-05-23T07:21:06.219Z,100988.24
2018-05-23T07:23:33.771Z,100988.76
2018-05-23T07:26:01.338Z,100991.48
2018-05-23T07:28:28.879Z,100988.07
2018-05-23T07:30:56.472Z,100989.35
2018-05-23T07:33:23.957Z,101002.07
2018-05-23T07:35:51.522Z,101003.86
2018-05-23T07:38:19.051Z,101003.79
2018-05-23T07:40:46.536Z,101006.34
2018-05-23T07:43:14.065Z,101017.24
2018-05-23T07:45:41.656Z,101013.88
2018-05-23T07:48:09.180Z,101010.84
2018-05-23T07:50:36.706Z,101016.75
2018-05-23T07:53:04.222Z,101013.61
2018-05-23T07:55:31.726Z,101018.09
2018-05-23T07:57:59.449Z,101010.45
2018-05-23T08:00:27.013Z,101027.09
2018-05-23T08:02:54.518Z,101020.27
2018-05-23T08:05:22.063Z,101014.95
2018-05-23T08:07:49.584Z,101017.59
2018-05-23T08:10:17.108Z,101022.33
2018-05-23T08:12:44.649Z,101028.59
2018-05-23T08:15:12.158Z,101028.23
2018-05-23T08:17:39.705Z,101033.70
2018-05-23T08:20:07.211Z,101028.02
2018-05-23T08:22:34.876Z,101033.61
2018-05-23T08:25:02.372Z,101031.64
2018-05-23T08:27:29.947Z,101027.05
2018-05-23T08:29:57.442Z,101028.48
2018-05-23T08:32:24.985Z,101032.80
2018-05-23T08:34:52.474Z,101030.19
2018-05-23T08:37:19.966Z,101029.22
2018-05-23T08:39:47.486Z,101035.00
2018-05-23T08:42:15.010Z,101043.05
2018-05-23T08:44:42.524Z,101042.23
2018-05-23T08:47:10.043Z,101041.05
2018-05-23T08:49:37.552Z,101033.00
2018-05-23T08:52:05.052Z,101048.98
2018-05-23T08:54:32.568Z,101047.17
2018-05-23T08:57:00.071Z,101045.72
2018-05-23T08:59:27.584Z,101052.86
2018-05-23T09:01:55.114Z,101056.06
2018-05-23T09:04:22.658Z,101049.06
2018-05-23T09:06:50.157Z,101050.66
2018-05-23T09:09:17.683Z,101062.48
2018-05-23T09:11:45.178Z,101063.05
2018-05-23T09:14:12.685Z,101060.55
2018-05-23T09:16:40.201Z,101061.00
2018-05-23T09:19:07.736Z,101066.72
2018-05-23T09:21:35.327Z,101067.98
2018-05-23T09:24:02.815Z,101070.73
2018-05-23T09:26:30.346Z,101068.20
2018-05-23T09:28:57.870Z,101063.81
2018-05-23T09:31:25.381Z,101077.48
2018-05-23T09:33:52.892Z,101078.14
2018-05-23T09:36:20.408Z,101093.48
2018-05-23T09:38:47.945Z,101081.45
2018-05-23T09:41:15.456Z,101082.25
2018-05-23T09:43:43.022Z,101080.75
2018-05-23T09:46:10.548Z,101078.44
2018-05-23T09:48:38.096Z,101078.92
2018-05-23T09:51:05.576Z,101079.84
2018-05-23T09:53:33.094Z,101084.36
2018-05-23T09:56:00.678Z,101092.48
2018-05-23T09:58:28.211Z,101087.60
2018-05-23T10:00:55.690Z,101076.76
2018-05-23T10:03:23.235Z,101085.11
2018-05-23T10:05:50.708Z,101089.17
2018-05-23T10:08:18.248Z,101089.62
2018-05-23T10:10:45.795Z,101087.02
2018-05-23T10:13:13.273Z,101093.25
2018-05-23T10:15:40.871Z,101081.85
2018-05-23T10:18:08.363Z,101092.05
2018-05-23T10:20:35.848Z,101094.57
2018-05-23T10:23:03.385Z,101087.31
2018-05-23T10:25:30.866Z,101087.64
2018-05-23T10:27:58.387Z,101084.44
2018-05-23T10:30:25.883Z,101083.00
2018-05-23T10:32:53.405Z,101088.78
2018-05-23T10:35:20.957Z,101097.72
2018-05-23T10:37:48.457Z,101101.19
2018-05-23T10:40:15.993Z,101100.44
2018-05-23T10:42:43.570Z,101098.60
2018-05-23T10:45:11.098Z,101096.19
2018-05-23T10:47:38.650Z,101094.08
2018-05-23T10:50:06.212Z,101086.90
2018-05-23T10:52:33.714Z,101090.52
2018-05-23T10:55:01.238Z,101093.87
2018-05-23T10:57:28.795Z,101090.47
2018-05-23T10:59:56.341Z,101087.64
2018-05-23T11:02:23.895Z,101085.88
2018-05-23T11:04:51.448Z,101089.21
2018-05-23T11:07:18.978Z,101097.10
2018-05-23T11:09:46.526Z,101096.78
2018-05-23T11:12:14.032Z,101087.79
2018-05-23T11:14:41.518Z,101093.95
2018-05-23T11:17:09.055Z,101091.97
2018-05-23T11:19:36.547Z,101090.98
2018-05-23T11:22:04.163Z,101083.65
2018-05-23T11:24:31.684Z,101088.65
2018-05-23T11:26:59.334Z,101089.39
2018-05-23T11:29:26.858Z,101083.05
2018-05-23T11:31:54.392Z,101092.89
2018-05-23T11:34:21.867Z,101089.45
2018-05-23T11:36:49.372Z,101092.27
2018-05-23T11:39:16.866Z,101097.25
2018-05-23T11:41:44.368Z,101088.66
2018-05-23T11:44:11.902Z,101089.17
2018-05-23T11:46:39.492Z,101082.52
2018-05-23T11:49:06.960Z,101077.69
2018-05-23T11:51:34.495Z,101077.16
2018-05-23T11:54:02.114Z,101076.28
2018-05-23T11:56:29.605Z,101068.76
2018-05-23T11:58:57.195Z,101078.64
2018-05-23T12:01:24.699Z,101068.34
2018-05-23T12:03:52.227Z,101077.73
2018-05-23T12:06:19.836Z,101075.44
2018-05-23T12:08:47.370Z,101077.23
2018-05-23T12:11:14.876Z,101064.39
2018-05-23T12:13:42.470Z,101066.98
2018-05-23T12:16:10.032Z,101068.33
2018-05-23T12:18:37.516Z,101062.03
2018-05-23T12:21:04.995Z,101051.61
2018-05-23T12:23:32.521Z,101063.02
2018-05-23T12:26:00.042Z,101064.20
2018-05-23T12:28:27.541Z,101061.77
2018-05-23T12:30:55.081Z,101060.65
2018-05-23T12:33:22.650Z,101063.42
2018-05-23T12:35:50.206Z,101069.25
2018-05-23T12:38:17.707Z,101061.85
2018-05-23T12:40:45.221Z,101067.93
2018-05-23T12:43:12.915Z,101060.97
2018-05-23T12:45:40.447Z,101049.22
2018-05-23T12:48:07.989Z,101065.16
2018-05-23T12:50:35.557Z,101052.84
2018-05-23T12:53:03.088Z,101049.23
2018-05-23T12:55:30.618Z,101053.01
2018-05-23T12:57:58.209Z,101057.48
2018-05-23T13:00:25.727Z,101060.63
2018-05-23T13:02:53.247Z,101055.73
2018-05-23T13:05:20.812Z,101063.47
2018-05-23T13:07:48.371Z,101058.16
2018-05-23T13:10:15.858Z,101060.14
2018-05-23T13:12:43.405Z,101050.17
2018-05-23T13:15:10.943Z,101052.47
2018-05-23T13:17:38.435Z,101056.91
2018-05-23T13:20:05.964Z,101055.14
2018-05-23T13:22:33.513Z,101058.23
2018-05-23T13:25:01.051Z,101059.12
2018-05-23T13:27:28.537Z,101055.22
2018-05-23T13:29:56.005Z,101041.29
2018-05-23T13:32:23.543Z,101048.85
2018-05-23T13:34:51.866Z,101046.29
2018-05-23T13:37:19.361Z,101050.62
2018-05-23T13:39:46.921Z,101046.97
2018-05-23T13:42:14.399Z,101052.64
2018-05-23T13:44:41.894Z,101051.40
2018-05-23T13:47:09.415Z,101052.17
2018-05-23T13:49:36.982Z,101059.72
2018-05-23T13:52:04.563Z,101037.42
2018-05-23T13:54:33.216Z,101044.78
2018-05-23T13:57:00.879Z,101044.13
2018-05-23T13:59:28.753Z,101049.68
2018-05-23T14:01:56.481Z,101040.67
2018-05-23T14:04:24.486Z,101037.63
2018-05-23T14:06:53.253Z,101039.16
2018-05-23T14:09:20.840Z,101034.27
2018-05-23T14:11:49.298Z,101035.98
2018-05-23T14:14:17.063Z,101036.66
2018-05-23T14:16:45.437Z,101042.31
2018-05-23T14:19:13.127Z,101050.67
2018-05-23T14:21:40.947Z,101042.22
2018-05-23T14:24:08.716Z,101043.82
2018-05-23T14:26:36.789Z,101041.94
2018-05-23T14:29:12.790Z,101038.77
2018-05-23T14:31:41.250Z,101033.45
2018-05-23T14:34:08.983Z,101033.70
2018-05-23T14:36:36.548Z,101049.50
2018-05-23T14:39:04.204Z,101037.61
2018-05-23T14:41:31.776Z,101037.84
2018-05-23T14:43:59.756Z,101034.80
2018-05-23T14:46:29.527Z,101031.77
2018-05-23T14:48:57.182Z,101030.65
2018-05-23T14:51:24.697Z,101027.68
2018-05-23T14:53:53.445Z,101032.88
2018-05-23T14:56:21.259Z,101024.02
2018-05-23T14:58:48.980Z,101020.27
2018-05-23T15:01:16.916Z,101021.32
2018-05-23T15:03:44.812Z,101028.12
2018-05-23T15:06:12.658Z,101022.89
2018-05-23T15:08:40.338Z,101030.23
2018-05-23T15:11:07.987Z,101028.41
2018-05-23T15:13:35.550Z,101031.86
2018-05-23T15:16:03.151Z,101033.94
2018-05-23T15:18:30.673Z,101029.84
2018-05-23T15:20:58.228Z,101042.44
2018-05-23T15:23:25.772Z,101042.48
2018-05-23T15:25:53.987Z,101038.25
2018-05-23T15:28:24.060Z,101042.02
2018-05-23T15:30:51.642Z,101026.60
2018-05-23T15:33:19.183Z,101043.66
2018-05-23T15:35:46.816Z,101039.02
2018-05-23T15:38:14.358Z,101032.79
2018-05-23T15:40:41.864Z,101033.66
2018-05-23T15:43:09.401Z,101038.45
2018-05-23T15:45:36.892Z,101035.77
2018-05-23T15:48:04.544Z,101038.42
2018-05-23T15:50:32.285Z,101044.95
2018-05-23T15:52:59.912Z,101042.50
2018-05-23T15:55:27.430Z,101021.64
2018-05-23T15:57:55.028Z,101031.03
2018-05-23T16:00:22.557Z,101040.45
2018-05-23T16:02:50.929Z,101037.30
2018-05-23T16:05:18.578Z,101038.56
2018-05-23T16:07:46.158Z,101046.77
2018-05-23T16:10:13.676Z,101041.02
2018-05-23T16:12:41.482Z,101044.44
2018-05-23T16:15:09.030Z,101048.62
2018-05-23T16:17:36.610Z,101055.19
2018-05-23T16:20:04.134Z,101045.59
2018-05-23T16:22:31.734Z,101052.58
2018-05-23T16:24:59.313Z,101050.36
2018-05-23T16:27:26.858Z,101046.42
2018-05-23T16:29:54.405Z,101038.47
2018-05-23T16:32:21.918Z,101040.34
2018-05-23T16:34:49.477Z,101038.52
2018-05-23T16:37:17.026Z,101040.41
2018-05-23T16:39:44.695Z,101041.52
2018-05-23T16:42:12.237Z,101032.09
2018-05-23T16:44:39.785Z,101036.42
2018-05-23T16:47:07.440Z,101035.45
2018-05-23T16:49:35.154Z,101043.66
2018-05-23T16:52:02.852Z,101037.09
2018-05-23T16:54:30.360Z,101029.46
2018-05-23T16:56:58.502Z,101034.17
2018-05-23T16:59:26.037Z,101030.91
2018-05-23T17:01:53.620Z,101027.67
2018-05-23T17:04:21.112Z,101030.91
2018-05-23T17:06:48.659Z,101027.83
2018-05-23T17:09:16.617Z,101031.48
2018-05-23T17:11:44.176Z,101034.41
2018-05-23T17:14:11.848Z,101043.26
2018-05-23T17:16:39.363Z,101038.90
2018-05-23T17:19:06.860Z,101039.79
2018-05-23T17:21:34.335Z,101038.18
2018-05-23T17:24:01.873Z,101033.19
2018-05-23T17:26:29.443Z,101029.24
2018-05-23T17:28:57.002Z,101035.23
2018-05-23T17:31:24.659Z,101035.60
2018-05-23T17:33:52.204Z,101042.77
2018-05-23T17:36:19.997Z,101047.85
2018-05-23T17:38:47.535Z,101045.92
2018-05-23T17:41:15.088Z,101048.89
2018-05-23T17:43:42.649Z,101050.98
2018-05-23T17:46:10.204Z,101051.81
2018-05-23T17:48:37.875Z,101051.36
2018-05-23T17:51:05.352Z,101053.03
2018-05-23T17:53:32.873Z,101059.12
2018-05-23T17:56:00.368Z,101059.27
2018-05-23T17:58:27.883Z,101055.13
2018-05-23T18:00:55.429Z,101058.78
2018-05-23T18:03:22.957Z,101063.02
2018-05-23T18:05:50.536Z,101065.80
2018-05-23T18:08:18.032Z,101067.45
2018-05-23T18:10:45.755Z,101067.63
2018-05-23T18:13:13.254Z,101065.78
2018-05-23T18:15:41.110Z,101062.84
2018-05-23T18:18:08.659Z,101064.09
2018-05-23T18:20:36.316Z,101065.36
2018-05-23T18:23:03.796Z,101066.89
2018-05-23T18:25:31.320Z,101069.78
2018-05-23T18:27:59.220Z,101065.26
2018-05-23T18:30:26.678Z,101068.45
2018-05-23T18:32:54.212Z,101076.48
2018-05-23T18:35:21.970Z,101078.17
2018-05-23T18:37:49.505Z,101074.22
2018-05-23T18:40:17.044Z,101080.80
2018-05-23T18:42:44.602Z,101087.75
2018-05-23T18:45:12.117Z,101087.20
2018-05-23T18:47:39.650Z,101090.87
2018-05-23T18:50:07.182Z,101091.73
2018-05-23T18:52:34.689Z,101092.92
2018-05-23T18:55:02.212Z,101102.09
2018-05-23T18:57:29.728Z,101099.55
2018-05-23T18:59:57.249Z,101100.72
2018-05-23T19:02:24.801Z,101095.62
2018-05-23T19:04:52.358Z,101099.70
2018-05-23T19:07:20.128Z,101105.75
2018-05-23T19:09:47.669Z,101108.92
2018-05-23T19:12:15.456Z,101105.83
2018-05-23T19:14:43.145Z,101105.61
2018-05-23T19:17:10.718Z,101104.94
2018-05-23T19:19:38.932Z,101104.80
2018-05-23T19:22:06.398Z,101114.91
2018-05-23T19:24:33.881Z,101117.23
2018-05-23T19:27:01.426Z,101114.31
2018-05-23T19:29:28.986Z,101125.57
2018-05-23T19:31:58.355Z,101121.58
2018-05-23T19:34:25.939Z,101131.65
2018-05-23T19:36:53.706Z,101140.26
2018-05-23T19:39:21.774Z,101136.31
2018-05-23T19:41:49.530Z,101135.72
2018-05-23T19:44:17.281Z,101140.20
2018-05-23T19:46:44.800Z,101144.19
2018-05-23T19:49:12.352Z,101141.19
2018-05-23T19:51:40.075Z,101144.41
2018-05-23T19:54:07.719Z,101146.86
2018-05-23T19:56:35.494Z,101158.93
2018-05-23T19:59:03.106Z,101158.91
2018-05-23T20:01:30.812Z,101159.44
2018-05-23T20:03:58.402Z,101163.58
2018-05-23T20:06:26.187Z,101165.99
2018-05-23T20:08:53.745Z,101171.06
2018-05-23T20:11:21.341Z,101165.63
2018-05-23T20:13:49.314Z,101173.06
2018-05-23T20:16:18.022Z,101167.84
2018-05-23T20:18:45.554Z,101169.97
2018-05-23T20:21:13.289Z,101173.38
2018-05-23T20:23:40.984Z,101171.21
2018-05-23T20:26:08.475Z,101177.98
2018-05-23T20:28:36.129Z,101178.47
2018-05-23T20:31:03.660Z,101180.02
2018-05-23T20:33:31.351Z,101173.50
2018-05-23T20:35:58.843Z,101177.40
2018-05-23T20:38:26.347Z,101185.41
2018-05-23T20:40:53.916Z,101177.30
2018-05-23T20:43:21.590Z,101182.65
2018-05-23T20:45:49.140Z,101181.51
2018-05-23T20:48:16.671Z,101179.73
2018-05-23T20:50:44.222Z,101175.54
2018-05-23T20:53:11.717Z,101173.78
2018-05-23T20:55:39.335Z,101178.09
2018-05-23T20:58:07.464Z,101182.40
2018-05-23T21:00:36.433Z,101181.66
2018-05-23T21:03:04.071Z,101187.84
2018-05-23T21:05:31.620Z,101186.27
2018-05-23T21:07:59.136Z,101183.20
2018-05-23T21:10:26.648Z,101189.84
2018-05-23T21:12:54.194Z,101184.48
2018-05-23T21:15:21.925Z,101182.59
2018-05-23T21:17:49.571Z,101187.97
2018-05-23T21:20:17.124Z,101183.45
2018-05-23T21:22:45.151Z,101184.14
2018-05-23T21:25:12.841Z,101181.00
2018-05-23T21:27:40.451Z,101182.44
2018-05-23T21:30:07.974Z,101180.55
2018-05-23T21:32:35.586Z,101184.95
2018-05-23T21:35:04.839Z,101178.61
2018-05-23T21:37:32.539Z,101179.55
2018-05-23T21:40:00.111Z,101173.09
2018-05-23T21:42:27.974Z,101170.79
2018-05-23T21:44:55.470Z,101172.95
2018-05-23T21:47:23.116Z,101175.41
2018-05-23T21:49:50.757Z,101166.34
2018-05-23T21:52:18.451Z,101167.77
2018-05-23T21:54:46.178Z,101166.70
2018-05-23T21:57:13.972Z,101171.19
2018-05-23T21:59:41.590Z,101172.57
2018-05-23T22:02:09.183Z,101173.84
2018-05-23T22:04:36.865Z,101172.34
2018-05-23T22:07:04.578Z,101172.39
2018-05-23T22:09:32.122Z,101170.56
2018-05-23T22:11:59.678Z,101168.80
2018-05-23T22:14:27.172Z,101170.56
2018-05-23T22:16:54.825Z,101165.89
2018-05-23T22:19:22.292Z,101169.06
2018-05-23T22:21:49.976Z,101165.73
2018-05-23T22:24:17.590Z,101169.27
2018-05-23T22:26:45.092Z,101162.30
2018-05-23T22:29:12.606Z,101164.14
2018-05-23T22:31:40.121Z,101161.73
2018-05-23T22:34:07.820Z,101166.49
2018-05-23T22:36:35.588Z,101158.52
2018-05-23T22:39:03.175Z,101158.42
2018-05-23T22:41:30.885Z,101163.70
2018-05-23T22:43:58.560Z,101161.81
2018-05-23T22:46:26.089Z,101164.53
2018-05-23T22:48:53.597Z,101159.52
2018-05-23T22:51:21.092Z,101160.55
2018-05-23T22:53:48.818Z,101155.05
2018-05-23T22:56:16.332Z,101163.64
2018-05-23T22:58:44.022Z,101160.95
2018-05-23T23:01:11.666Z,101165.34
2018-05-23T23:03:39.159Z,101171.02
2018-05-23T23:06:06.681Z,101178.44
2018-05-23T23:08:34.255Z,101175.25
2018-05-23T23:11:01.770Z,101174.83
2018-05-23T23:13:29.304Z,101177.27
2018-05-23T23:15:56.823Z,101181.49
2018-05-23T23:18:24.343Z,101187.89
2018-05-23T23:20:51.840Z,101186.44
2018-05-23T23:23:19.404Z,101184.88
2018-05-23T23:25:46.879Z,101198.88
2018-05-23T23:28:14.411Z,101192.87
2018-05-23T23:30:41.940Z,101189.37
2018-05-23T23:33:09.420Z,101192.00
2018-05-23T23:35:36.897Z,101199.72
2018-05-23T23:38:04.506Z,101191.16
2018-05-23T23:40:32.090Z,101200.85
2018-05-23T23:42:59.603Z,101205.38
2018-05-23T23:45:27.132Z,101209.55
2018-05-23T23:47:54.727Z,101199.05
2018-05-23T23:50:22.322Z,101201.11
2018-05-23T23:52:49.811Z,101213.28
2018-05-23T23:55:17.370Z,101214.64
2018-05-23T23:57:44.865Z,101214.98
